Ponsin, Belgium

8:31 AM CEST on April 24, 2018 (GMT +0200)
Tourinne la Chaussée | | Change Station

Elev 500 ft 50.64 °N, 5.18 °E | Updated 3 seconds ago

Mostly Cloudy
Mostly Cloudy
49.1 °F
Feels Like 46 °F
N
6.9
Wind Variable Wind from SW
Gusts 8.1 mph

Today
High -- | Low -- °F
--% Chance of Precip.
Yesterday
High -- | Low -- °F
Precip. -- in
Pressure 30.04 in
Visibility 6.2 miles
Clouds Scattered Clouds 3000 ft
Scattered Clouds 8000 ft
Mostly Cloudy 20000 ft
Windchill 46 °F
Dew Point -5 °F
Humidity 10%
Rainfall 0.00 in
Snow Depth Not available.
6:27 AM 8:48 PM
Waxing Gibbous, 65% visible
METAR EBBL 240555Z 22011KT 9999 SCT030 SCT080 BKN200 09/06 Q1017 BLU BLU BECMG WHT
Pressure 30.04 in
Visibility 6.2 miles
Clouds Scattered Clouds 3000 ft
Scattered Clouds 8000 ft
Mostly Cloudy 20000 ft
Windchill 46 °F
Dew Point -5 °F
Humidity 10%
Rainfall 0.00 in
Snow Depth Not available.
6:27 AM 8:48 PM
Waxing Gibbous, 65% visible
METAR EBBL 240555Z 22011KT 9999 SCT030 SCT080 BKN200 09/06 Q1017 BLU BLU BECMG WHT

Get Severe Weather Alerts

Thanks for signing up!

Be on the lookout for a verification email in your inbox.

You'll start receiving the daily forecast at 6 AM.

×

10-Day Weather Forecast

×

Almanac

Astronomy

Apr. 24, 2018 Rise Set
Actual Time
Civil Twilight
Nautical Twilight
Astronomical Twilight
Moon
Length of Visible Light
Length of Day
Tomorrow will be .
, % of the Moon is Illuminated

Today's Extremes

Country Highs Country Lows

Community

WunderPhotos

Category 6

Welcome to Category 6. This is the collective home for Weather Underground's featured writeups by Dr. Jeff Masters (right), Bob Henson (left), Chris Burt, and other regular contributors.

Nearby

Air Quality

  Air Quality AQ Index Pollutant
Not available.

Snow Depth

Station Depth Elevation

Earthquake Activity

City Distance Mag. Time & Date
Minimum magnitude displayed is 2.5.

Coastal Water Temperatures

Place Temperature

Stations

Nearby Weather Stations

Station Location Temp. Windchill Dew Point Humidity Wind Precip. Elev Updated Type